Time;durP1;ratioP1;P1;durP2;ratioP2;P2;SDS_P1;SDS_P2;PMS_P1;PMS_P2;Temp;Humidity;BMP_temperature;BMP_pressure;BME280_temperature;BME280_humidity;BME280_pressure;Samples;Min_cycle;Max_cycle;Signal;HPM_P1;HPM_P2
2023/05/20 00:00:48;;;;;;;7.32;5.05;;;;;;;;;;5023785;28;20048;-73
2023/05/20 00:03:14;;;;;;;8.65;5.32;;;;;;;;;;5020558;28;20034;-74
2023/05/20 00:05:39;;;;;;;8.93;5.63;;;;;;;;;;5029204;28;20033;-74
2023/05/20 00:08:08;;;;;;;7.15;5.25;;;;;;;;;;5020626;28;20214;-74
2023/05/20 00:10:33;;;;;;;8.35;5.30;;;;;;;;;;5022479;28;20076;-74
2023/05/20 00:12:58;;;;;;;7.97;5.45;;;;;;;;;;5020977;28;20107;-74
2023/05/20 00:15:24;;;;;;;11.20;5.25;;;;;;;;;;5022899;28;20034;-74
2023/05/20 00:17:49;;;;;;;8.38;5.10;;;;;;;;;;5024949;28;20026;-74
2023/05/20 00:20:14;;;;;;;8.35;5.93;;;;;;;;;;5022586;28;20029;-72
2023/05/20 00:22:40;;;;;;;7.93;5.25;;;;;;;;;;5021270;28;20488;-74
2023/05/20 00:25:05;;;;;;;8.10;5.53;;;;;;;;;;5022486;28;20104;-74
2023/05/20 00:27:30;;;;;;;7.38;5.50;;;;;;;;;;5017935;28;20041;-73
2023/05/20 00:29:55;;;;;;;7.47;5.30;;;;;;;;;;5020815;28;20026;-74
2023/05/20 00:32:21;;;;;;;9.15;5.40;;;;;;;;;;5021271;28;20137;-73
2023/05/20 00:34:54;;;;;;;8.90;6.30;;;;;;;;;;5025359;28;20029;-74
2023/05/20 00:37:19;;;;;;;8.57;5.22;;;;;;;;;;5026619;28;20401;-74
2023/05/20 00:39:45;;;;;;;8.38;5.65;;;;;;;;;;5020628;28;20022;-74
2023/05/20 00:42:10;;;;;;;8.43;6.00;;;;;;;;;;5022496;28;20056;-74
2023/05/20 00:44:35;;;;;;;11.95;5.53;;;;;;;;;;5020515;28;20030;-73
2023/05/20 00:47:00;;;;;;;8.48;5.80;;;;;;;;;;5022546;28;20048;-74
2023/05/20 00:49:26;;;;;;;9.65;5.93;;;;;;;;;;5020326;28;20498;-74
2023/05/20 00:51:51;;;;;;;8.50;5.60;;;;;;;;;;5022611;28;20032;-74
2023/05/20 00:54:16;;;;;;;10.98;5.78;;;;;;;;;;5018972;28;20037;-74
2023/05/20 00:56:42;;;;;;;8.88;5.70;;;;;;;;;;5021561;28;20049;-74
2023/05/20 00:59:07;;;;;;;8.57;5.32;;;;;;;;;;5022884;28;20037;-74
2023/05/20 01:01:32;;;;;;;6.55;4.80;;;;;;;;;;5020073;28;20030;-74
2023/05/20 01:03:58;;;;;;;10.70;5.15;;;;;;;;;;5021310;28;20431;-74
2023/05/20 01:06:23;;;;;;;9.43;5.43;;;;;;;;;;5019935;28;20407;-73
2023/05/20 01:08:48;;;;;;;8.77;5.18;;;;;;;;;;5022391;28;20041;-74
2023/05/20 01:11:21;;;;;;;8.65;5.38;;;;;;;;;;5022894;28;20029;-73
2023/05/20 01:13:50;;;;;;;8.90;5.88;;;;;;;;;;5019863;28;20041;-73
2023/05/20 01:16:16;;;;;;;8.82;5.82;;;;;;;;;;5025568;28;20057;-74
2023/05/20 01:18:42;;;;;;;9.50;5.68;;;;;;;;;;5020620;28;20030;-74
2023/05/20 01:21:09;;;;;;;9.57;5.50;;;;;;;;;;5020567;28;20025;-74
2023/05/20 01:23:41;;;;;;;9.68;5.75;;;;;;;;;;5023863;28;20029;-73
2023/05/20 01:26:08;;;;;;;9.48;6.38;;;;;;;;;;5024110;28;20040;-74
2023/05/20 01:28:35;;;;;;;8.48;5.60;;;;;;;;;;5025728;28;20026;-74
2023/05/20 01:31:02;;;;;;;9.57;6.53;;;;;;;;;;5025158;28;20124;-74
2023/05/20 01:33:29;;;;;;;7.85;5.20;;;;;;;;;;5023080;28;20537;-74
2023/05/20 01:35:55;;;;;;;9.73;6.20;;;;;;;;;;5023179;28;20079;-74
2023/05/20 01:38:22;;;;;;;7.97;6.10;;;;;;;;;;5026931;28;20022;-74
2023/05/20 01:40:48;;;;;;;12.05;6.57;;;;;;;;;;5024974;28;20474;-73
2023/05/20 01:43:13;;;;;;;11.68;6.63;;;;;;;;;;5022387;28;20061;-74
2023/05/20 01:45:40;;;;;;;10.55;6.50;;;;;;;;;;5026009;28;20513;-74
2023/05/20 01:48:05;;;;;;;9.27;6.07;;;;;;;;;;5022579;28;20065;-74
2023/05/20 01:50:31;;;;;;;8.63;6.53;;;;;;;;;;5024098;28;20483;-74
2023/05/20 01:52:56;;;;;;;9.50;6.45;;;;;;;;;;5023938;28;20033;-74
2023/05/20 01:55:21;;;;;;;8.50;6.13;;;;;;;;;;5025241;28;20499;-74
2023/05/20 01:57:46;;;;;;;11.00;7.20;;;;;;;;;;5023566;28;20483;-73
2023/05/20 02:00:12;;;;;;;12.75;6.28;;;;;;;;;;5023899;28;20030;-74
2023/05/20 02:02:40;;;;;;;10.02;7.18;;;;;;;;;;5024599;28;20376;-73
2023/05/20 02:05:08;;;;;;;10.50;6.85;;;;;;;;;;5022801;28;20037;-74
2023/05/20 02:07:33;;;;;;;10.48;7.43;;;;;;;;;;5024753;28;20026;-74
2023/05/20 02:09:58;;;;;;;11.68;6.90;;;;;;;;;;5022424;28;20048;-73
2023/05/20 02:12:24;;;;;;;11.18;6.80;;;;;;;;;;5023558;28;20029;-73
2023/05/20 02:14:49;;;;;;;10.57;6.63;;;;;;;;;;5023769;28;20056;-73
2023/05/20 02:17:15;;;;;;;9.82;7.00;;;;;;;;;;5025833;28;20068;-74
2023/05/20 02:19:41;;;;;;;10.00;7.55;;;;;;;;;;5024639;28;20538;-72
2023/05/20 02:22:06;;;;;;;9.30;6.25;;;;;;;;;;5022168;28;20178;-74
2023/05/20 02:24:31;;;;;;;12.05;7.43;;;;;;;;;;5023500;28;20495;-73
2023/05/20 02:26:57;;;;;;;12.15;6.95;;;;;;;;;;5021866;28;20068;-74
2023/05/20 02:29:23;;;;;;;10.05;6.68;;;;;;;;;;5020386;28;20038;-72
2023/05/20 02:31:48;;;;;;;8.90;6.90;;;;;;;;;;5025086;28;20033;-73
2023/05/20 02:34:17;;;;;;;10.27;6.82;;;;;;;;;;5022406;28;20065;-74
2023/05/20 02:36:43;;;;;;;11.15;7.20;;;;;;;;;;5025775;28;20025;-74
2023/05/20 02:39:08;;;;;;;10.70;7.60;;;;;;;;;;5023235;28;20034;-74
2023/05/20 02:41:33;;;;;;;10.43;6.85;;;;;;;;;;5025698;28;20030;-73
2023/05/20 02:43:59;;;;;;;9.63;7.00;;;;;;;;;;5021761;28;20034;-74
2023/05/20 02:46:26;;;;;;;11.50;7.07;;;;;;;;;;5024023;28;20037;-74
2023/05/20 02:48:52;;;;;;;9.70;7.38;;;;;;;;;;5021943;28;20439;-73
2023/05/20 02:51:17;;;;;;;11.05;7.68;;;;;;;;;;5023799;28;20029;-73
2023/05/20 02:53:42;;;;;;;10.45;7.60;;;;;;;;;;5022224;28;20061;-73
2023/05/20 02:56:07;;;;;;;10.55;6.80;;;;;;;;;;5023594;28;20025;-73
2023/05/20 02:58:34;;;;;;;12.15;7.68;;;;;;;;;;5022198;28;20021;-74
2023/05/20 03:01:00;;;;;;;11.77;7.40;;;;;;;;;;5022975;28;20404;-73
2023/05/20 03:03:28;;;;;;;9.68;7.28;;;;;;;;;;5025945;28;20090;-73
2023/05/20 03:05:53;;;;;;;10.88;6.60;;;;;;;;;;5045424;23;20042;-78
2023/05/20 03:08:20;;;;;;;11.15;7.80;;;;;;;;;;5048238;28;20053;-78
2023/05/20 03:10:45;;;;;;;10.05;7.28;;;;;;;;;;5044891;28;20033;-78
2023/05/20 03:13:10;;;;;;;11.25;7.78;;;;;;;;;;5047057;28;20025;-78
2023/05/20 03:15:36;;;;;;;10.73;7.43;;;;;;;;;;5026079;28;20106;-78
2023/05/20 03:18:02;;;;;;;12.68;7.70;;;;;;;;;;5037572;28;20034;-78
2023/05/20 03:20:31;;;;;;;10.15;7.07;;;;;;;;;;5019654;28;20026;-77
2023/05/20 03:22:57;;;;;;;10.48;7.43;;;;;;;;;;5018027;28;20053;-78
2023/05/20 03:25:23;;;;;;;12.07;7.95;;;;;;;;;;5018771;28;20038;-78
2023/05/20 03:27:48;;;;;;;11.52;7.20;;;;;;;;;;5017184;28;20520;-78
2023/05/20 03:30:13;;;;;;;11.00;7.60;;;;;;;;;;5020854;28;20029;-78
2023/05/20 03:32:39;;;;;;;11.15;8.13;;;;;;;;;;5013077;28;20093;-78
2023/05/20 03:35:05;;;;;;;10.73;7.95;;;;;;;;;;5018039;28;20570;-78
2023/05/20 03:37:30;;;;;;;10.55;7.75;;;;;;;;;;5020217;28;20025;-77
2023/05/20 03:39:55;;;;;;;14.25;7.60;;;;;;;;;;5021199;28;20048;-78
2023/05/20 03:42:21;;;;;;;10.70;8.00;;;;;;;;;;5018035;28;20037;-78
2023/05/20 03:44:46;;;;;;;11.25;7.50;;;;;;;;;;5017843;28;20036;-78
2023/05/20 03:47:12;;;;;;;10.98;7.45;;;;;;;;;;5021454;28;20087;-78
2023/05/20 03:49:39;;;;;;;12.43;7.85;;;;;;;;;;5017396;28;20032;-78
2023/05/20 03:52:05;;;;;;;11.15;7.85;;;;;;;;;;5028884;28;20086;-78
2023/05/20 03:54:30;;;;;;;12.23;8.57;;;;;;;;;;5019926;28;20033;-78
2023/05/20 03:56:55;;;;;;;14.80;9.38;;;;;;;;;;5014555;28;20049;-78
2023/05/20 03:59:21;;;;;;;15.30;8.50;;;;;;;;;;5020429;28;20381;-78
2023/05/20 04:01:47;;;;;;;10.68;7.90;;;;;;;;;;5017828;28;20025;-78
2023/05/20 04:04:12;;;;;;;11.43;8.50;;;;;;;;;;5017851;28;20471;-78
2023/05/20 04:06:37;;;;;;;11.05;8.20;;;;;;;;;;5034930;28;20121;-78
2023/05/20 04:09:03;;;;;;;16.30;10.02;;;;;;;;;;5019043;28;20057;-78
2023/05/20 04:11:28;;;;;;;11.98;9.05;;;;;;;;;;5017555;28;20049;-78
2023/05/20 04:13:54;;;;;;;14.02;9.43;;;;;;;;;;5036838;28;20029;-78
2023/05/20 04:16:19;;;;;;;11.57;8.68;;;;;;;;;;5016816;28;20030;-78
2023/05/20 04:18:47;;;;;;;11.10;7.95;;;;;;;;;;5017807;28;20053;-78
2023/05/20 04:21:12;;;;;;;10.40;7.82;;;;;;;;;;5018368;28;20025;-78
2023/05/20 04:23:38;;;;;;;11.75;8.73;;;;;;;;;;5017511;28;20029;-78
2023/05/20 04:26:03;;;;;;;12.10;8.50;;;;;;;;;;5034995;28;20033;-78
2023/05/20 04:28:30;;;;;;;14.10;10.43;;;;;;;;;;5017069;28;20036;-78
2023/05/20 04:31:01;;;;;;;13.00;9.63;;;;;;;;;;5016989;28;20061;-78
2023/05/20 04:33:27;;;;;;;12.15;8.85;;;;;;;;;;5018992;28;20105;-78
2023/05/20 04:35:57;;;;;;;14.77;9.23;;;;;;;;;;5015927;28;20029;-78
2023/05/20 04:38:28;;;;;;;13.52;9.57;;;;;;;;;;5017706;28;20064;-78
2023/05/20 04:40:56;;;;;;;14.90;10.32;;;;;;;;;;5013021;28;20101;-77
2023/05/20 04:43:22;;;;;;;14.57;10.25;;;;;;;;;;5016945;28;20040;-78
2023/05/20 04:45:47;;;;;;;12.85;9.90;;;;;;;;;;5033483;28;20037;-78
2023/05/20 04:48:13;;;;;;;15.57;11.15;;;;;;;;;;5019218;28;20030;-78
2023/05/20 04:50:39;;;;;;;14.32;10.15;;;;;;;;;;5016880;28;20030;-78
2023/05/20 04:53:05;;;;;;;13.43;9.98;;;;;;;;;;5016101;28;20029;-78
2023/05/20 04:55:30;;;;;;;14.85;9.90;;;;;;;;;;5034179;28;20028;-78
2023/05/20 04:57:56;;;;;;;14.38;10.55;;;;;;;;;;5014399;28;20017;-79
2023/05/20 05:00:22;;;;;;;19.05;10.73;;;;;;;;;;5033773;28;20030;-78
2023/05/20 05:02:47;;;;;;;15.35;11.13;;;;;;;;;;5016357;28;20029;-78
2023/05/20 05:05:13;;;;;;;16.45;11.93;;;;;;;;;;5016182;28;20520;-78
2023/05/20 05:07:38;;;;;;;17.08;11.55;;;;;;;;;;5016349;28;20054;-78
2023/05/20 05:10:04;;;;;;;15.73;11.80;;;;;;;;;;5032437;28;20037;-78
2023/05/20 05:12:30;;;;;;;15.85;11.68;;;;;;;;;;5013103;28;20439;-78
2023/05/20 05:14:57;;;;;;;17.17;12.55;;;;;;;;;;5016256;28;20491;-78
2023/05/20 05:17:23;;;;;;;16.95;12.05;;;;;;;;;;5014582;28;20072;-78
2023/05/20 05:19:48;;;;;;;18.63;12.23;;;;;;;;;;5033852;28;20029;-77
2023/05/20 05:22:13;;;;;;;14.60;11.25;;;;;;;;;;5013953;28;20021;-78
2023/05/20 05:24:38;;;;;;;20.30;13.50;;;;;;;;;;5016790;28;20029;-78
2023/05/20 05:27:04;;;;;;;16.10;11.55;;;;;;;;;;5028974;28;20030;-77
2023/05/20 05:29:29;;;;;;;18.30;12.77;;;;;;;;;;5034226;28;20037;-77
2023/05/20 05:31:54;;;;;;;16.23;11.48;;;;;;;;;;5013986;28;20036;-78
2023/05/20 05:34:20;;;;;;;14.30;11.45;;;;;;;;;;5018571;28;20053;-78
2023/05/20 05:36:45;;;;;;;16.67;12.10;;;;;;;;;;5016154;28;20056;-77
2023/05/20 05:39:11;;;;;;;16.00;11.88;;;;;;;;;;5012785;28;20030;-77
2023/05/20 05:41:36;;;;;;;17.05;12.13;;;;;;;;;;5016788;28;20029;-79
2023/05/20 05:44:01;;;;;;;17.25;11.82;;;;;;;;;;5012868;28;20075;-77
2023/05/20 05:46:27;;;;;;;16.98;12.75;;;;;;;;;;5000493;28;20516;-78
2023/05/20 05:48:52;;;;;;;17.02;11.90;;;;;;;;;;5012154;28;20034;-78
2023/05/20 05:51:18;;;;;;;19.58;12.43;;;;;;;;;;5034159;28;20496;-78
2023/05/20 05:53:43;;;;;;;16.20;12.52;;;;;;;;;;4996592;28;20026;-78
2023/05/20 05:56:09;;;;;;;18.08;11.82;;;;;;;;;;5033499;28;20028;-78
2023/05/20 05:58:34;;;;;;;18.88;12.90;;;;;;;;;;5018974;28;20045;-78
2023/05/20 06:01:01;;;;;;;14.63;11.05;;;;;;;;;;5006527;28;20025;-78
2023/05/20 06:03:28;;;;;;;20.20;13.15;;;;;;;;;;5015976;28;20026;-78
2023/05/20 06:05:54;;;;;;;16.92;12.50;;;;;;;;;;5004967;28;20041;-78
2023/05/20 06:08:19;;;;;;;17.80;12.55;;;;;;;;;;5034852;28;20034;-78
2023/05/20 06:10:48;;;;;;;17.10;11.88;;;;;;;;;;5015846;28;20048;-78
2023/05/20 06:13:14;;;;;;;17.63;12.75;;;;;;;;;;5014762;28;20030;-78
2023/05/20 06:15:40;;;;;;;16.73;12.80;;;;;;;;;;5018285;28;20083;-77
2023/05/20 06:18:05;;;;;;;16.58;13.02;;;;;;;;;;5017919;28;20033;-77
2023/05/20 06:20:31;;;;;;;17.40;12.63;;;;;;;;;;5017181;28;20022;-78
2023/05/20 06:22:56;;;;;;;18.92;13.43;;;;;;;;;;5017138;28;20018;-78
2023/05/20 06:25:27;;;;;;;16.38;12.00;;;;;;;;;;5017562;28;20025;-77
2023/05/20 06:27:52;;;;;;;20.45;13.13;;;;;;;;;;5015459;28;20030;-78
2023/05/20 06:30:18;;;;;;;18.42;12.88;;;;;;;;;;5018131;28;20021;-78
2023/05/20 06:32:44;;;;;;;16.52;12.75;;;;;;;;;;5016211;28;20022;-78
2023/05/20 06:35:10;;;;;;;18.75;14.20;;;;;;;;;;5018930;28;20044;-78
2023/05/20 06:37:35;;;;;;;21.83;12.57;;;;;;;;;;5033796;28;20074;-78
2023/05/20 06:40:01;;;;;;;20.92;13.85;;;;;;;;;;5014292;28;20029;-78
2023/05/20 06:42:26;;;;;;;18.13;14.75;;;;;;;;;;5036225;28;20024;-78
2023/05/20 06:45:02;;;;;;;18.75;14.85;;;;;;;;;;5013943;28;20030;-77
2023/05/20 06:47:41;;;;;;;19.02;14.35;;;;;;;;;;5015803;28;20057;-78
2023/05/20 06:50:09;;;;;;;19.17;14.02;;;;;;;;;;5019785;28;20052;-78
2023/05/20 06:52:34;;;;;;;17.20;13.82;;;;;;;;;;5018843;28;20061;-77
2023/05/20 06:55:00;;;;;;;19.48;14.27;;;;;;;;;;5015400;28;20029;-78
2023/05/20 06:57:26;;;;;;;19.50;15.20;;;;;;;;;;5017689;28;20075;-78
2023/05/20 06:59:51;;;;;;;18.95;14.32;;;;;;;;;;5025585;28;20039;-78
2023/05/20 07:02:20;;;;;;;24.25;15.18;;;;;;;;;;4999578;28;20034;-78
2023/05/20 07:04:45;;;;;;;19.50;14.00;;;;;;;;;;5035282;28;20068;-78
2023/05/20 07:07:11;;;;;;;18.38;13.93;;;;;;;;;;4994197;28;20022;-77
2023/05/20 07:09:36;;;;;;;18.92;13.63;;;;;;;;;;5018343;28;20093;-78
2023/05/20 07:12:03;;;;;;;17.60;13.80;;;;;;;;;;5014860;28;20025;-78
2023/05/20 07:14:29;;;;;;;18.73;14.95;;;;;;;;;;5023811;28;20122;-78
2023/05/20 07:16:54;;;;;;;20.30;14.07;;;;;;;;;;5015577;28;20022;-78
2023/05/20 07:19:20;;;;;;;19.33;13.82;;;;;;;;;;5023059;28;20040;-78
2023/05/20 07:21:45;;;;;;;17.45;12.77;;;;;;;;;;5033513;28;20026;-77
2023/05/20 07:24:35;;;;;;;19.77;14.68;;;;;;;;;;5029960;28;20061;-78
2023/05/20 07:27:02;;;;;;;20.60;15.55;;;;;;;;;;5014523;28;20032;-78
2023/05/20 07:29:28;;;;;;;18.13;14.57;;;;;;;;;;5034512;28;20116;-78
2023/05/20 07:31:53;;;;;;;18.48;14.25;;;;;;;;;;5033474;28;20087;-78
2023/05/20 07:34:18;;;;;;;16.73;13.73;;;;;;;;;;5015613;28;20033;-78
2023/05/20 07:36:44;;;;;;;19.75;15.00;;;;;;;;;;5033687;28;20037;-78
2023/05/20 07:39:10;;;;;;;17.48;13.07;;;;;;;;;;5033411;28;20026;-77
2023/05/20 07:41:38;;;;;;;19.00;14.68;;;;;;;;;;5012193;28;20034;-78
2023/05/20 07:44:05;;;;;;;21.10;14.70;;;;;;;;;;5014440;28;20042;-78
2023/05/20 07:46:32;;;;;;;21.83;14.07;;;;;;;;;;5006307;28;20030;-78
2023/05/20 07:48:58;;;;;;;18.27;14.35;;;;;;;;;;5016714;28;20055;-78
2023/05/20 07:51:23;;;;;;;17.50;13.55;;;;;;;;;;5008787;28;20034;-77
2023/05/20 07:53:48;;;;;;;16.08;12.73;;;;;;;;;;5015030;28;20114;-78
2023/05/20 07:56:14;;;;;;;14.88;12.77;;;;;;;;;;5017530;28;20025;-79
2023/05/20 07:58:41;;;;;;;16.70;11.95;;;;;;;;;;5022375;28;20397;-78
2023/05/20 08:01:08;;;;;;;16.73;11.93;;;;;;;;;;5001481;28;20055;-78
2023/05/20 08:03:34;;;;;;;19.33;13.02;;;;;;;;;;5014763;28;20071;-78
2023/05/20 08:06:05;;;;;;;16.42;12.88;;;;;;;;;;5008460;28;20046;-78
2023/05/20 08:08:30;;;;;;;15.77;12.55;;;;;;;;;;5017418;28;20042;-78
2023/05/20 08:11:03;;;;;;;15.90;12.88;;;;;;;;;;5015240;28;20033;-79
2023/05/20 08:13:30;;;;;;;16.08;12.95;;;;;;;;;;5023246;28;20029;-78
2023/05/20 08:15:55;;;;;;;13.80;11.18;;;;;;;;;;5022137;28;20053;-77
2023/05/20 08:18:22;;;;;;;15.88;11.32;;;;;;;;;;5014813;28;20057;-77
2023/05/20 08:20:47;;;;;;;16.02;11.80;;;;;;;;;;5013203;28;20036;-78
2023/05/20 08:23:12;;;;;;;16.63;12.90;;;;;;;;;;5016786;28;20030;-78
2023/05/20 08:25:38;;;;;;;14.07;10.60;;;;;;;;;;5033770;28;20440;-78
2023/05/20 08:28:05;;;;;;;16.98;12.55;;;;;;;;;;5010097;28;20025;-77
2023/05/20 08:30:31;;;;;;;15.30;11.82;;;;;;;;;;5013304;28;20026;-78
2023/05/20 08:32:56;;;;;;;14.65;11.95;;;;;;;;;;5016244;28;20040;-78
2023/05/20 08:35:23;;;;;;;16.92;12.82;;;;;;;;;;5015241;28;20036;-77
2023/05/20 08:37:48;;;;;;;15.48;11.90;;;;;;;;;;5013718;28;20407;-78
2023/05/20 08:40:13;;;;;;;13.80;11.45;;;;;;;;;;5013989;28;20029;-78
2023/05/20 08:42:43;;;;;;;14.35;11.70;;;;;;;;;;5014224;28;20064;-77
2023/05/20 08:45:14;;;;;;;15.52;12.50;;;;;;;;;;5023830;28;20030;-78
2023/05/20 08:47:40;;;;;;;14.68;11.55;;;;;;;;;;5014279;28;20030;-78
2023/05/20 08:50:06;;;;;;;18.80;12.07;;;;;;;;;;5015056;28;20064;-78
2023/05/20 08:52:33;;;;;;;16.42;11.80;;;;;;;;;;5033457;28;20091;-78
2023/05/20 08:54:59;;;;;;;14.57;11.45;;;;;;;;;;5014311;28;20129;-78
2023/05/20 08:57:24;;;;;;;18.13;11.07;;;;;;;;;;5029695;28;20038;-77
2023/05/20 08:59:50;;;;;;;14.90;11.43;;;;;;;;;;5031172;28;20651;-78
2023/05/20 09:02:16;;;;;;;18.75;11.45;;;;;;;;;;5032516;28;20045;-78
2023/05/20 09:04:41;;;;;;;14.10;10.23;;;;;;;;;;5031314;28;20037;-77
2023/05/20 09:07:06;;;;;;;13.55;10.52;;;;;;;;;;5040628;23;20061;-74
2023/05/20 09:09:32;;;;;;;15.00;11.27;;;;;;;;;;5020296;28;20117;-75
2023/05/20 09:11:58;;;;;;;12.55;10.18;;;;;;;;;;5029109;28;20037;-74
2023/05/20 09:14:25;;;;;;;13.82;10.43;;;;;;;;;;5023127;28;20073;-74
2023/05/20 09:16:51;;;;;;;12.95;10.18;;;;;;;;;;5020160;28;20506;-74
2023/05/20 09:19:16;;;;;;;13.07;10.82;;;;;;;;;;5025509;28;20109;-75
2023/05/20 09:21:41;;;;;;;13.38;10.38;;;;;;;;;;5020190;28;20038;-74
2023/05/20 09:24:07;;;;;;;12.70;10.82;;;;;;;;;;5024486;28;20064;-75
2023/05/20 09:26:32;;;;;;;15.40;10.82;;;;;;;;;;5024877;28;20062;-75
2023/05/20 09:28:57;;;;;;;16.40;11.98;;;;;;;;;;5021440;28;20025;-75
2023/05/20 09:31:32;;;;;;;13.88;11.88;;;;;;;;;;5019739;28;20052;-75
2023/05/20 09:33:59;;;;;;;16.33;10.85;;;;;;;;;;5019859;28;20029;-74
2023/05/20 09:36:27;;;;;;;16.40;11.57;;;;;;;;;;5021999;28;20025;-74
2023/05/20 09:38:53;;;;;;;13.60;11.35;;;;;;;;;;5020378;28;20034;-75
2023/05/20 09:41:21;;;;;;;14.18;11.00;;;;;;;;;;5038388;28;20484;-75
2023/05/20 09:43:46;;;;;;;15.35;11.40;;;;;;;;;;5023997;28;20049;-75
2023/05/20 09:46:12;;;;;;;13.35;11.30;;;;;;;;;;5023684;28;20112;-75
2023/05/20 09:48:38;;;;;;;17.02;11.73;;;;;;;;;;5023223;28;20037;-74
2023/05/20 09:51:04;;;;;;;14.23;11.32;;;;;;;;;;5025993;28;20048;-74
2023/05/20 09:53:29;;;;;;;15.07;12.00;;;;;;;;;;5025232;28;20433;-74
2023/05/20 09:55:55;;;;;;;14.75;11.50;;;;;;;;;;5024068;28;20554;-75
2023/05/20 09:58:21;;;;;;;14.65;12.00;;;;;;;;;;5022549;28;20034;-74
2023/05/20 10:00:46;;;;;;;13.85;10.73;;;;;;;;;;5028310;28;20092;-75
2023/05/20 10:03:12;;;;;;;12.80;11.13;;;;;;;;;;5026557;28;20033;-74
2023/05/20 10:05:40;;;;;;;14.48;11.20;;;;;;;;;;5024310;28;20120;-75
2023/05/20 10:08:19;;;;;;;14.18;11.55;;;;;;;;;;5026324;28;20053;-74
2023/05/20 10:11:11;;;;;;;15.43;11.57;;;;;;;;;;5026125;28;20057;-74
2023/05/20 10:13:44;;;;;;;16.77;10.18;;;;;;;;;;5025037;28;20090;-74
2023/05/20 10:16:18;;;;;;;14.38;10.38;;;;;;;;;;5024669;28;20117;-75
2023/05/20 10:18:59;;;;;;;13.82;11.38;;;;;;;;;;5025443;28;20116;-75
2023/05/20 10:21:24;;;;;;;13.68;11.80;;;;;;;;;;5026181;28;20034;-74
2023/05/20 10:23:50;;;;;;;13.23;11.05;;;;;;;;;;5026101;28;20059;-75
2023/05/20 10:26:16;;;;;;;16.40;12.65;;;;;;;;;;5024278;28;20383;-75
2023/05/20 10:28:41;;;;;;;18.17;11.18;;;;;;;;;;5021936;28;20032;-74
2023/05/20 10:31:16;;;;;;;18.75;12.98;;;;;;;;;;5024722;28;20375;-74
2023/05/20 10:33:42;;;;;;;14.75;12.40;;;;;;;;;;5028211;28;20025;-75
2023/05/20 10:36:08;;;;;;;16.15;12.45;;;;;;;;;;5025994;28;20037;-75
2023/05/20 10:38:33;;;;;;;17.45;11.82;;;;;;;;;;5021981;28;20034;-75
2023/05/20 10:41:06;;;;;;;19.30;12.83;;;;;;;;;;5025578;28;20025;-75
2023/05/20 10:43:32;;;;;;;15.50;12.30;;;;;;;;;;5025706;28;20276;-75
2023/05/20 10:45:58;;;;;;;17.50;12.90;;;;;;;;;;5023305;28;20036;-74
2023/05/20 10:48:24;;;;;;;20.30;12.55;;;;;;;;;;5025546;28;20291;-74
2023/05/20 10:50:49;;;;;;;17.15;11.68;;;;;;;;;;5023177;28;20041;-75
2023/05/20 10:53:15;;;;;;;15.82;11.98;;;;;;;;;;5025308;28;20037;-74
2023/05/20 10:55:46;;;;;;;16.80;12.30;;;;;;;;;;5022623;28;20058;-75
2023/05/20 10:58:11;;;;;;;15.60;11.77;;;;;;;;;;5024210;28;20087;-75
2023/05/20 11:00:37;;;;;;;19.90;11.63;;;;;;;;;;5027185;28;20025;-75
2023/05/20 11:03:04;;;;;;;16.60;12.38;;;;;;;;;;5025416;28;20061;-73
2023/05/20 11:05:30;;;;;;;14.70;11.40;;;;;;;;;;5022355;28;20038;-75
2023/05/20 11:08:02;;;;;;;14.57;11.73;;;;;;;;;;5024497;28;20099;-74
2023/05/20 11:10:27;;;;;;;19.35;12.20;;;;;;;;;;5021279;28;20488;-75
2023/05/20 11:12:52;;;;;;;16.77;11.70;;;;;;;;;;5026653;28;20091;-74
2023/05/20 11:15:18;;;;;;;13.20;11.07;;;;;;;;;;5024887;28;20068;-75
2023/05/20 11:17:56;;;;;;;16.60;12.02;;;;;;;;;;5021480;28;20076;-75
2023/05/20 11:20:22;;;;;;;17.73;11.95;;;;;;;;;;5022760;28;20634;-75
2023/05/20 11:22:48;;;;;;;15.88;11.38;;;;;;;;;;5022190;28;20080;-75
2023/05/20 11:25:13;;;;;;;15.30;11.52;;;;;;;;;;5024212;28;20514;-74
2023/05/20 11:27:38;;;;;;;15.63;12.63;;;;;;;;;;5020033;28;20037;-75
2023/05/20 11:30:04;;;;;;;14.45;11.85;;;;;;;;;;5022039;28;20287;-75
2023/05/20 11:32:30;;;;;;;14.77;11.32;;;;;;;;;;5024008;28;20033;-75
2023/05/20 11:34:55;;;;;;;14.05;11.85;;;;;;;;;;5024805;28;20033;-75
2023/05/20 11:37:22;;;;;;;13.93;12.40;;;;;;;;;;5024663;28;20026;-75
2023/05/20 11:39:47;;;;;;;15.02;12.27;;;;;;;;;;5021146;28;20057;-75
2023/05/20 11:42:13;;;;;;;15.75;11.98;;;;;;;;;;5023998;28;20080;-75
2023/05/20 11:44:43;;;;;;;18.92;11.82;;;;;;;;;;5023835;28;20123;-75
2023/05/20 11:47:08;;;;;;;13.70;11.23;;;;;;;;;;5027203;28;20575;-75
2023/05/20 11:49:38;;;;;;;12.97;10.97;;;;;;;;;;5024268;28;20139;-75
2023/05/20 11:52:03;;;;;;;17.05;11.25;;;;;;;;;;5021514;28;20782;-75
2023/05/20 11:54:28;;;;;;;14.15;10.32;;;;;;;;;;5024263;28;20061;-75
2023/05/20 11:56:55;;;;;;;15.05;11.27;;;;;;;;;;5023263;28;20120;-74
2023/05/20 11:59:22;;;;;;;16.33;11.88;;;;;;;;;;5020180;28;20120;-74
2023/05/20 12:01:47;;;;;;;12.65;9.93;;;;;;;;;;5024255;28;20036;-75
2023/05/20 12:04:13;;;;;;;11.97;10.07;;;;;;;;;;5021976;28;20033;-75
2023/05/20 12:06:38;;;;;;;12.45;11.15;;;;;;;;;;5022541;28;20754;-74
2023/05/20 12:09:05;;;;;;;15.02;10.93;;;;;;;;;;5021690;28;20026;-75
2023/05/20 12:11:34;;;;;;;11.00;9.80;;;;;;;;;;5022085;28;20042;-75
2023/05/20 12:14:00;;;;;;;14.43;10.32;;;;;;;;;;5024063;28;20128;-76
2023/05/20 12:16:25;;;;;;;10.98;9.88;;;;;;;;;;5023887;28;20117;-75
2023/05/20 12:18:50;;;;;;;15.17;9.90;;;;;;;;;;5023435;28;20030;-74
2023/05/20 12:21:15;;;;;;;12.13;9.13;;;;;;;;;;5022954;28;20491;-75
2023/05/20 12:23:41;;;;;;;11.70;9.87;;;;;;;;;;5021004;28;20281;-74
2023/05/20 12:26:06;;;;;;;15.53;9.93;;;;;;;;;;5023877;28;20272;-75
2023/05/20 12:28:32;;;;;;;10.40;9.03;;;;;;;;;;5020192;28;20276;-75
2023/05/20 12:30:57;;;;;;;17.77;9.18;;;;;;;;;;5019557;28;20042;-75
2023/05/20 12:33:22;;;;;;;13.63;9.43;;;;;;;;;;5024360;28;20072;-76
2023/05/20 12:35:47;;;;;;;10.32;9.23;;;;;;;;;;5026921;28;20346;-75
2023/05/20 12:38:13;;;;;;;11.20;8.47;;;;;;;;;;5021184;28;20061;-74
2023/05/20 12:40:38;;;;;;;12.37;9.27;;;;;;;;;;5022813;28;20263;-75
2023/05/20 12:43:03;;;;;;;10.63;8.07;;;;;;;;;;5020379;28;20276;-75
2023/05/20 12:45:29;;;;;;;11.50;7.60;;;;;;;;;;5023072;28;20283;-75
2023/05/20 12:47:54;;;;;;;9.18;7.57;;;;;;;;;;5020707;28;20033;-75
2023/05/20 12:50:20;;;;;;;8.85;7.47;;;;;;;;;;5023064;28;20034;-75
2023/05/20 12:52:45;;;;;;;10.13;8.00;;;;;;;;;;5019680;28;20034;-75
2023/05/20 12:55:12;;;;;;;10.43;7.38;;;;;;;;;;5023275;28;20488;-76
2023/05/20 12:57:44;;;;;;;8.75;7.30;;;;;;;;;;5022872;28;20037;-75
2023/05/20 13:00:10;;;;;;;10.20;7.50;;;;;;;;;;5022766;28;20112;-75
2023/05/20 13:02:38;;;;;;;8.32;6.97;;;;;;;;;;5022172;28;20124;-75
2023/05/20 13:05:04;;;;;;;9.77;7.65;;;;;;;;;;5021211;28;20057;-76
2023/05/20 13:07:30;;;;;;;11.82;7.25;;;;;;;;;;5022202;28;20122;-75
2023/05/20 13:09:56;;;;;;;12.13;7.03;;;;;;;;;;5023077;28;20415;-76
2023/05/20 13:12:21;;;;;;;9.35;6.75;;;;;;;;;;5022928;28;20042;-76
2023/05/20 13:14:46;;;;;;;8.43;6.27;;;;;;;;;;5021071;28;20037;-76
2023/05/20 13:17:11;;;;;;;9.27;6.27;;;;;;;;;;5023570;28;20026;-75
2023/05/20 13:19:37;;;;;;;10.70;6.77;;;;;;;;;;5027082;28;20022;-75
2023/05/20 13:22:02;;;;;;;9.70;7.05;;;;;;;;;;5023760;28;20041;-76
2023/05/20 13:24:27;;;;;;;10.85;6.75;;;;;;;;;;5026613;28;20065;-76
2023/05/20 13:26:53;;;;;;;10.03;7.17;;;;;;;;;;5024613;28;20037;-76
2023/05/20 13:29:18;;;;;;;8.23;7.10;;;;;;;;;;5023720;28;20033;-76
2023/05/20 13:31:43;;;;;;;8.85;6.80;;;;;;;;;;5025838;28;20033;-75
2023/05/20 13:34:08;;;;;;;9.97;6.87;;;;;;;;;;5027132;28;20430;-76
2023/05/20 13:36:33;;;;;;;9.13;6.50;;;;;;;;;;5024239;28;20642;-76
2023/05/20 13:38:59;;;;;;;10.80;7.30;;;;;;;;;;5025529;28;20056;-76
2023/05/20 13:41:25;;;;;;;8.50;6.80;;;;;;;;;;5027012;28;20087;-75
2023/05/20 13:43:50;;;;;;;7.63;6.55;;;;;;;;;;5023831;28;20412;-76
2023/05/20 13:46:16;;;;;;;11.05;6.93;;;;;;;;;;5029168;28;20026;-76
2023/05/20 13:48:41;;;;;;;10.02;7.38;;;;;;;;;;5023645;28;20029;-76
2023/05/20 13:51:06;;;;;;;8.83;6.57;;;;;;;;;;5026539;28;20026;-76
2023/05/20 13:53:31;;;;;;;9.27;6.67;;;;;;;;;;5026088;28;20038;-75
2023/05/20 13:55:57;;;;;;;9.03;7.20;;;;;;;;;;5026496;28;20022;-76
2023/05/20 13:58:22;;;;;;;9.30;6.78;;;;;;;;;;5021127;28;20056;-76
2023/05/20 14:00:47;;;;;;;9.75;7.32;;;;;;;;;;5026270;28;20030;-76
2023/05/20 14:03:12;;;;;;;8.90;6.83;;;;;;;;;;5023707;28;20026;-76
2023/05/20 14:05:37;;;;;;;8.80;7.10;;;;;;;;;;5026536;28;20130;-76
2023/05/20 14:08:03;;;;;;;13.10;8.15;;;;;;;;;;5026363;28;20022;-76
2023/05/20 14:10:28;;;;;;;10.13;8.75;;;;;;;;;;5026692;28;20036;-76
2023/05/20 14:12:54;;;;;;;8.73;7.83;;;;;;;;;;5022780;28;20444;-76
2023/05/20 14:15:19;;;;;;;7.97;6.93;;;;;;;;;;5026226;28;20043;-76
2023/05/20 14:17:45;;;;;;;7.82;7.10;;;;;;;;;;5022288;28;20064;-75
2023/05/20 14:20:10;;;;;;;9.32;7.30;;;;;;;;;;5025876;28;20032;-76